Time;durP1;ratioP1;P1;durP2;ratioP2;P2;SDS_P1;SDS_P2;PMS_P1;PMS_P2;Temp;Humidity;BMP_temperature;BMP_pressure;BME280_temperature;BME280_humidity;BME280_pressure;Samples;Min_cycle;Max_cycle;Signal;HPM_P1;HPM_P2
2020/12/05 00:00:10;;;;;;;45.73;30.93;;;2.00;99.90;;;;;;5013683;28;20304;-50
2020/12/05 00:02:37;;;;;;;48.23;31.50;;;2.00;99.90;;;;;;5013795;28;20216;-52
2020/12/05 00:05:04;;;;;;;36.38;27.08;;;2.00;99.90;;;;;;5013863;28;20313;-52
2020/12/05 00:07:31;;;;;;;38.30;29.10;;;2.00;99.90;;;;;;5014001;28;20233;-46
2020/12/05 00:09:59;;;;;;;43.27;28.53;;;2.00;99.90;;;;;;5013626;28;20248;-51
2020/12/05 00:12:26;;;;;;;59.77;39.27;;;2.00;99.90;;;;;;5013505;28;20288;-50
2020/12/05 00:14:55;;;;;;;48.73;33.67;;;2.00;99.90;;;;;;5012989;28;20209;-47
2020/12/05 00:17:22;;;;;;;49.97;32.87;;;1.90;99.90;;;;;;5013338;28;20229;-52
2020/12/05 00:19:49;;;;;;;46.67;32.13;;;1.80;99.90;;;;;;5013693;28;20215;-47
2020/12/05 00:22:17;;;;;;;42.60;30.60;;;1.70;99.90;;;;;;5013401;28;20587;-49
2020/12/05 00:24:44;;;;;;;40.30;29.13;;;1.70;99.90;;;;;;5013414;28;20209;-49
2020/12/05 00:27:12;;;;;;;40.40;28.43;;;1.70;99.90;;;;;;5013289;28;20564;-48
2020/12/05 00:29:39;;;;;;;36.03;27.70;;;1.60;99.90;;;;;;5012942;28;20686;-52
2020/12/05 00:32:07;;;;;;;39.53;28.90;;;1.60;99.90;;;;;;5013586;28;20304;-49
2020/12/05 00:34:34;;;;;;;37.27;27.17;;;1.50;99.90;;;;;;5013314;28;20209;-51
2020/12/05 00:37:01;;;;;;;41.53;28.63;;;1.50;99.90;;;;;;5013084;28;20225;-49
2020/12/05 00:39:28;;;;;;;45.47;31.00;;;1.50;99.90;;;;;;5013089;28;20738;-49
2020/12/05 00:41:56;;;;;;;42.80;30.10;;;1.50;99.90;;;;;;5013090;28;20680;-52
2020/12/05 00:44:24;;;;;;;43.50;30.00;;;1.50;99.90;;;;;;5012929;28;20241;-50
2020/12/05 00:46:51;;;;;;;38.20;29.67;;;1.40;99.90;;;;;;5013486;28;20639;-50
2020/12/05 00:49:18;;;;;;;44.73;31.33;;;1.40;99.90;;;;;;5013106;28;20351;-51
2020/12/05 00:51:47;;;;;;;38.80;28.73;;;1.30;99.90;;;;;;5012833;28;20292;-49
2020/12/05 00:54:15;;;;;;;36.77;27.57;;;1.30;99.90;;;;;;5012796;28;20668;-49
2020/12/05 00:56:42;;;;;;;39.73;27.90;;;1.20;99.90;;;;;;5012782;28;20229;-48
2020/12/05 00:59:09;;;;;;;40.97;28.07;;;1.20;99.90;;;;;;5012611;28;20217;-46
2020/12/05 01:01:37;;;;;;;38.43;28.63;;;1.10;99.90;;;;;;5012997;28;20209;-48
2020/12/05 01:04:04;;;;;;;44.90;30.10;;;1.10;99.90;;;;;;5012751;28;20213;-45
2020/12/05 01:06:31;;;;;;;40.77;28.57;;;1.10;99.90;;;;;;5012518;28;20241;-48
2020/12/05 01:08:58;;;;;;;41.03;28.53;;;1.00;99.90;;;;;;5012600;28;20206;-51
2020/12/05 01:11:25;;;;;;;36.87;26.57;;;1.00;99.90;;;;;;5012358;28;20300;-49
2020/12/05 01:13:52;;;;;;;33.83;26.33;;;1.00;99.90;;;;;;5012318;28;20220;-50
2020/12/05 01:16:20;;;;;;;35.87;26.43;;;1.10;99.90;;;;;;5012412;28;20769;-51
2020/12/05 01:18:48;;;;;;;36.87;28.13;;;1.00;99.90;;;;;;5012450;28;20205;-52
2020/12/05 01:21:16;;;;;;;35.20;25.77;;;1.00;99.90;;;;;;5012245;28;20300;-53
2020/12/05 01:23:44;;;;;;;37.53;25.83;;;1.00;99.90;;;;;;5012449;28;20213;-50
2020/12/05 01:26:11;;;;;;;39.47;27.77;;;1.00;99.90;;;;;;5011818;28;20308;-48
2020/12/05 01:28:38;;;;;;;36.43;27.27;;;0.90;99.90;;;;;;5011888;28;20332;-50
2020/12/05 01:31:06;;;;;;;34.53;25.63;;;0.90;99.90;;;;;;5012431;28;20240;-49
2020/12/05 01:33:33;;;;;;;37.60;25.50;;;0.90;99.90;;;;;;5012257;28;20259;-48
2020/12/05 01:36:01;;;;;;;34.47;26.30;;;0.90;99.90;;;;;;5012097;28;20216;-51
2020/12/05 01:38:28;;;;;;;35.50;25.80;;;0.90;99.90;;;;;;5012100;28;20292;-48
2020/12/05 01:40:57;;;;;;;34.73;24.97;;;0.80;99.90;;;;;;5011874;28;20209;-52
2020/12/05 01:43:25;;;;;;;31.57;24.10;;;0.80;99.90;;;;;;5012318;28;20304;-49
2020/12/05 01:45:53;;;;;;;33.40;25.50;;;0.80;99.90;;;;;;5012446;28;20287;-50
2020/12/05 01:48:21;;;;;;;35.40;25.73;;;0.80;99.90;;;;;;5012328;28;20236;-47
2020/12/05 01:50:49;;;;;;;35.27;25.10;;;0.80;99.90;;;;;;5012080;28;20296;-47
2020/12/05 01:53:17;;;;;;;34.13;24.63;;;0.70;99.90;;;;;;5011911;28;20304;-48
2020/12/05 01:55:44;;;;;;;35.43;24.63;;;0.70;99.90;;;;;;5012053;28;20209;-53
2020/12/05 01:58:12;;;;;;;39.03;26.33;;;0.70;99.90;;;;;;5012338;28;20237;-50
2020/12/05 02:00:39;;;;;;;38.27;25.73;;;0.70;99.90;;;;;;5011988;28;20304;-48
2020/12/05 02:03:06;;;;;;;39.57;26.63;;;0.70;99.90;;;;;;5011743;28;20432;-51
2020/12/05 02:05:44;;;;;;;38.20;24.97;;;0.70;99.90;;;;;;5011737;28;20275;-48
2020/12/05 02:08:14;;;;;;;37.28;28.05;;;0.70;99.90;;;;;;5012078;28;20208;-52
2020/12/05 02:10:48;;;;;;;40.22;26.95;;;0.70;99.90;;;;;;5011893;28;20677;-51
2020/12/05 02:13:25;;;;;;;40.23;27.00;;;0.60;99.90;;;;;;5011678;28;20249;-52
2020/12/05 02:15:53;;;;;;;43.17;27.27;;;0.60;99.90;;;;;;5011678;28;20296;-49
2020/12/05 02:18:20;;;;;;;38.40;28.20;;;0.50;99.90;;;;;;5011497;28;20739;-47
2020/12/05 02:20:50;;;;;;;41.77;28.70;;;0.50;99.90;;;;;;5011901;28;20300;-46
2020/12/05 02:23:19;;;;;;;40.23;27.33;;;0.60;99.90;;;;;;5011561;28;20237;-48
2020/12/05 02:25:50;;;;;;;41.03;27.60;;;0.60;99.90;;;;;;5011546;28;20617;-47
2020/12/05 02:28:18;;;;;;;40.27;27.90;;;0.60;99.90;;;;;;5011583;28;20300;-47
2020/12/05 02:30:46;;;;;;;36.83;27.27;;;0.60;99.90;;;;;;5011421;28;20241;-48
2020/12/05 02:33:13;;;;;;;37.47;26.60;;;0.60;99.90;;;;;;5011432;28;20735;-50
2020/12/05 02:35:40;;;;;;;38.50;27.37;;;0.60;99.90;;;;;;5011618;28;20206;-49
2020/12/05 02:38:18;;;;;;;41.43;27.73;;;0.60;99.90;;;;;;5012408;28;20284;-50
2020/12/05 02:40:46;;;;;;;37.30;25.50;;;0.50;99.90;;;;;;5015201;28;20632;-50
2020/12/05 02:43:13;;;;;;;40.87;27.63;;;0.50;99.90;;;;;;5014982;28;20241;-49
2020/12/05 02:45:41;;;;;;;40.07;27.90;;;0.50;99.90;;;;;;5014983;28;20320;-48
2020/12/05 02:48:08;;;;;;;37.40;25.17;;;0.40;99.90;;;;;;5015370;28;20296;-51
2020/12/05 02:50:35;;;;;;;41.83;27.37;;;0.40;99.90;;;;;;5015044;28;20293;-49
2020/12/05 02:53:03;;;;;;;37.63;25.87;;;0.40;99.90;;;;;;5015003;28;20215;-53
2020/12/05 02:55:30;;;;;;;44.17;27.13;;;0.40;99.90;;;;;;5014991;28;20212;-49
2020/12/05 02:57:58;;;;;;;38.17;26.40;;;0.30;99.90;;;;;;5014655;28;20241;-51
2020/12/05 03:00:25;;;;;;;40.63;28.83;;;0.30;99.90;;;;;;5014971;28;20582;-52
2020/12/05 03:02:52;;;;;;;45.87;31.07;;;0.20;99.90;;;;;;5014718;28;20675;-47
2020/12/05 03:05:19;;;;;;;40.13;27.83;;;0.30;99.90;;;;;;5014675;28;20219;-49
2020/12/05 03:07:47;;;;;;;41.57;26.23;;;0.20;99.90;;;;;;5014729;28;20216;-47
2020/12/05 03:10:14;;;;;;;37.67;26.30;;;0.30;99.90;;;;;;5014540;28;20312;-48
2020/12/05 03:12:41;;;;;;;37.70;26.53;;;0.30;99.90;;;;;;5014665;28;20300;-50
2020/12/05 03:15:09;;;;;;;43.47;27.50;;;0.30;99.90;;;;;;5014513;28;20209;-52
2020/12/05 03:17:36;;;;;;;40.70;27.97;;;0.40;99.90;;;;;;5014412;28;20239;-54
2020/12/05 03:20:04;;;;;;;38.43;27.37;;;0.40;99.90;;;;;;5014365;28;20248;-46
2020/12/05 03:22:31;;;;;;;37.90;24.88;;;0.50;99.90;;;;;;5014373;28;20205;-51
2020/12/05 03:24:58;;;;;;;36.23;25.63;;;0.60;99.90;;;;;;5014287;28;20301;-50
2020/12/05 03:27:25;;;;;;;35.73;26.80;;;0.60;99.90;;;;;;5014466;28;20205;-50
2020/12/05 03:29:52;;;;;;;39.17;26.03;;;0.70;99.90;;;;;;5014490;28;20260;-51
2020/12/05 03:32:22;;;;;;;38.00;26.40;;;0.70;99.90;;;;;;5014335;28;20232;-53
2020/12/05 03:34:49;;;;;;;39.50;25.77;;;0.70;99.90;;;;;;5014039;28;20687;-50
2020/12/05 03:37:16;;;;;;;37.78;26.77;;;0.80;99.90;;;;;;5013957;28;20221;-48
2020/12/05 03:39:43;;;;;;;40.00;26.63;;;0.80;99.90;;;;;;5014011;28;20759;-54
2020/12/05 03:42:10;;;;;;;41.30;28.23;;;0.80;99.90;;;;;;5013870;28;20225;-49
2020/12/05 03:44:37;;;;;;;39.33;26.47;;;0.80;99.90;;;;;;5013675;28;20245;-50
2020/12/05 03:47:04;;;;;;;38.37;26.53;;;0.80;99.90;;;;;;5014103;28;20300;-51
2020/12/05 03:49:32;;;;;;;37.77;26.17;;;0.90;99.90;;;;;;5013257;28;20244;-47
2020/12/05 03:52:01;;;;;;;48.00;28.93;;;1.00;99.90;;;;;;5013800;28;20213;-48
2020/12/05 03:54:28;;;;;;;34.57;25.03;;;1.10;99.90;;;;;;5014016;28;20215;-50
2020/12/05 03:56:56;;;;;;;37.87;25.00;;;1.30;99.90;;;;;;5013593;28;20568;-47
2020/12/05 03:59:24;;;;;;;33.13;23.53;;;1.50;99.90;;;;;;5013833;28;20308;-47
2020/12/05 04:01:51;;;;;;;34.53;23.43;;;1.50;99.90;;;;;;5013740;28;20209;-50
2020/12/05 04:04:18;;;;;;;51.97;33.07;;;1.50;99.90;;;;;;5013538;28;20304;-49
2020/12/05 04:06:46;;;;;;;35.57;24.63;;;1.60;99.90;;;;;;5013517;28;20719;-49
2020/12/05 04:09:13;;;;;;;33.37;23.93;;;1.60;99.90;;;;;;5013690;28;20219;-47
2020/12/05 04:11:40;;;;;;;35.17;23.60;;;1.70;99.90;;;;;;5013631;28;20216;-48
2020/12/05 04:14:10;;;;;;;35.57;23.40;;;1.80;99.90;;;;;;5013743;28;20442;-47
2020/12/05 04:16:38;;;;;;;31.40;22.80;;;1.90;99.90;;;;;;5013457;28;20631;-45
2020/12/05 04:19:06;;;;;;;31.60;22.53;;;1.90;99.90;;;;;;5013264;28;20644;-48
2020/12/05 04:21:33;;;;;;;32.17;22.30;;;1.90;99.90;;;;;;5013713;28;20237;-48
2020/12/05 04:24:01;;;;;;;27.73;21.03;;;1.90;99.90;;;;;;5013486;28;20271;-49
2020/12/05 04:26:28;;;;;;;33.07;22.23;;;1.90;99.90;;;;;;5013408;28;20223;-49
2020/12/05 04:28:55;;;;;;;29.97;22.40;;;1.90;99.90;;;;;;5013390;28;20213;-53
2020/12/05 04:31:22;;;;;;;30.83;21.80;;;2.00;99.90;;;;;;5013020;28;20578;-50
2020/12/05 04:33:49;;;;;;;31.27;22.93;;;2.00;99.90;;;;;;5013095;28;20304;-51
2020/12/05 04:36:16;;;;;;;28.33;21.90;;;2.10;99.90;;;;;;5013315;28;20237;-51
2020/12/05 04:38:43;;;;;;;29.30;22.07;;;2.20;99.90;;;;;;5013247;28;20335;-51
2020/12/05 04:41:11;;;;;;;31.00;22.20;;;2.30;99.90;;;;;;5013055;28;20205;-50
2020/12/05 04:43:38;;;;;;;27.87;20.93;;;2.30;99.90;;;;;;5013297;28;20295;-51
2020/12/05 04:46:06;;;;;;;28.47;20.83;;;2.50;99.90;;;;;;5012673;28;20399;-52
2020/12/05 04:48:34;;;;;;;28.20;21.00;;;2.60;99.90;;;;;;5013095;28;20731;-53
2020/12/05 04:51:03;;;;;;;30.43;20.67;;;2.70;99.90;;;;;;5012954;28;20646;-50
2020/12/05 04:53:32;;;;;;;27.08;20.02;;;2.70;99.90;;;;;;5012881;28;20213;-53
2020/12/05 04:56:01;;;;;;;29.08;21.25;;;2.80;99.90;;;;;;5012832;28;20213;-50
2020/12/05 04:58:29;;;;;;;27.60;20.87;;;2.80;99.90;;;;;;5012521;28;20260;-49
2020/12/05 05:00:57;;;;;;;27.67;20.50;;;2.90;99.90;;;;;;5012318;28;20209;-53
2020/12/05 05:03:26;;;;;;;26.53;20.13;;;2.90;99.90;;;;;;5012759;28;20260;-55
2020/12/05 05:05:55;;;;;;;29.20;20.30;;;2.90;99.90;;;;;;5012598;28;20205;-50
2020/12/05 05:08:24;;;;;;;25.97;19.60;;;2.90;99.90;;;;;;5012488;28;20201;-47
2020/12/05 05:11:07;;;;;;;27.20;20.57;;;2.80;99.90;;;;;;5012389;28;20259;-48
2020/12/05 05:13:49;;;;;;;27.43;20.17;;;2.80;99.90;;;;;;5012386;28;20249;-46
2020/12/05 05:16:16;;;;;;;24.10;19.33;;;2.80;99.90;;;;;;5012455;28;20222;-50
2020/12/05 05:18:43;;;;;;;24.20;18.70;;;2.80;99.90;;;;;;5012474;28;20323;-50
2020/12/05 05:21:32;;;;;;;22.73;18.05;;;2.80;99.90;;;;;;5012307;28;20210;-50
2020/12/05 05:24:02;;;;;;;25.02;19.10;;;2.80;99.90;;;;;;5012606;28;20694;-48
2020/12/05 05:26:29;;;;;;;24.88;18.70;;;2.80;99.90;;;;;;5012336;28;20702;-49
2020/12/05 05:28:57;;;;;;;25.00;19.02;;;2.80;99.90;;;;;;5012397;28;20211;-49
2020/12/05 05:31:29;;;;;;;24.42;19.42;;;2.80;99.90;;;;;;5012267;28;20209;-52
2020/12/05 05:33:56;;;;;;;22.10;19.17;;;2.80;99.90;;;;;;5012381;28;20581;-51
2020/12/05 05:36:25;;;;;;;23.70;18.43;;;2.90;99.90;;;;;;5012157;28;20300;-52
2020/12/05 05:39:03;;;;;;;22.13;18.17;;;2.90;99.90;;;;;;5012403;28;20268;-52
2020/12/05 05:41:31;;;;;;;24.20;18.20;;;2.90;99.90;;;;;;5012169;28;20248;-52
2020/12/05 05:44:04;;;;;;;21.07;17.00;;;2.90;99.90;;;;;;5011975;28;20217;-55
2020/12/05 05:46:32;;;;;;;21.03;17.90;;;2.90;99.90;;;;;;5012008;28;20264;-51
2020/12/05 05:49:01;;;;;;;19.80;16.60;;;2.80;99.90;;;;;;5012243;28;20638;-51
2020/12/05 05:51:45;;;;;;;21.67;17.43;;;2.80;99.90;;;;;;5012363;28;20217;-51
2020/12/05 05:54:14;;;;;;;20.80;16.87;;;2.80;99.90;;;;;;5012171;28;20209;-53
2020/12/05 05:56:59;;;;;;;21.60;16.23;;;2.80;99.90;;;;;;5011938;28;20205;-50
2020/12/05 05:59:28;;;;;;;20.47;16.27;;;2.90;99.90;;;;;;5012254;28;20228;-47
2020/12/05 06:01:56;;;;;;;22.20;16.33;;;3.00;99.90;;;;;;5012164;28;20209;-52
2020/12/05 06:04:28;;;;;;;20.97;15.83;;;3.10;99.90;;;;;;5012049;28;20582;-50
2020/12/05 06:06:59;;;;;;;19.27;16.65;;;3.10;99.90;;;;;;5011993;28;20209;-52
2020/12/05 06:09:28;;;;;;;19.03;15.63;;;3.20;99.90;;;;;;5011911;28;20209;-51
2020/12/05 06:11:57;;;;;;;20.75;15.88;;;3.30;99.90;;;;;;5011854;28;20687;-52
2020/12/05 06:14:25;;;;;;;19.77;16.90;;;3.40;99.90;;;;;;5014910;28;20304;-52
2020/12/05 06:16:57;;;;;;;20.37;16.47;;;3.40;99.90;;;;;;5015801;28;20663;-52
2020/12/05 06:19:25;;;;;;;19.53;15.13;;;3.50;99.90;;;;;;5015868;28;20245;-51
2020/12/05 06:21:55;;;;;;;18.03;16.00;;;3.60;99.90;;;;;;5015672;28;20287;-47
2020/12/05 06:24:35;;;;;;;19.53;16.17;;;3.70;99.90;;;;;;5015839;28;20301;-50
2020/12/05 06:27:03;;;;;;;24.57;19.03;;;3.80;99.90;;;;;;5016088;28;20245;-52
2020/12/05 06:29:32;;;;;;;70.27;42.90;;;3.90;99.90;;;;;;5015892;28;20213;-53
2020/12/05 06:32:00;;;;;;;57.50;35.63;;;3.80;99.90;;;;;;5015539;28;20236;-52
2020/12/05 06:34:36;;;;;;;39.00;24.17;;;3.90;99.90;;;;;;5015453;28;20252;-53
2020/12/05 06:37:04;;;;;;;18.57;16.33;;;3.90;99.90;;;;;;5015306;28;20232;-52
2020/12/05 06:39:31;;;;;;;17.48;15.25;;;3.80;99.90;;;;;;5015562;28;20209;-50
2020/12/05 06:41:58;;;;;;;18.63;15.87;;;3.80;99.90;;;;;;5015188;28;20219;-52
2020/12/05 06:44:36;;;;;;;19.60;16.63;;;3.70;99.90;;;;;;5015119;28;20214;-52
2020/12/05 06:47:05;;;;;;;18.20;15.30;;;3.70;99.90;;;;;;5014838;28;20296;-54
2020/12/05 06:49:49;;;;;;;16.97;14.77;;;3.80;99.90;;;;;;5015195;28;20292;-56
2020/12/05 06:52:52;;;;;;;17.20;15.20;;;3.80;99.90;;;;;;5015041;28;20216;-51
2020/12/05 06:55:30;;;;;;;17.80;14.83;;;4.00;99.90;;;;;;5014810;28;20237;-53
2020/12/05 06:58:03;;;;;;;17.67;15.17;;;3.90;99.90;;;;;;5015553;28;20229;-54
2020/12/05 07:00:37;;;;;;;17.63;14.73;;;4.00;99.90;;;;;;5014930;28;20745;-52
2020/12/05 07:03:08;;;;;;;19.63;14.73;;;4.00;99.90;;;;;;5015334;28;20245;-55
2020/12/05 07:05:40;;;;;;;16.80;13.80;;;4.00;99.90;;;;;;5014896;28;20266;-50
2020/12/05 07:08:24;;;;;;;17.37;13.83;;;4.00;99.90;;;;;;5014901;28;20206;-52
2020/12/05 07:10:54;;;;;;;15.27;13.50;;;4.00;99.90;;;;;;5014980;28;20296;-47
2020/12/05 07:13:24;;;;;;;14.17;12.77;;;4.00;99.90;;;;;;5014827;28;20252;-50
2020/12/05 07:15:52;;;;;;;16.13;13.93;;;4.10;99.90;;;;;;5014709;28;20206;-51
2020/12/05 07:18:26;;;;;;;18.27;14.33;;;4.10;99.90;;;;;;5014561;28;20314;-53
2020/12/05 07:20:54;;;;;;;16.07;14.37;;;4.20;99.90;;;;;;5014719;28;20322;-51
2020/12/05 07:23:22;;;;;;;16.60;14.97;;;4.30;99.90;;;;;;5014658;28;20209;-52
2020/12/05 07:25:50;;;;;;;17.77;15.00;;;4.30;99.90;;;;;;5013385;28;20240;-52
2020/12/05 07:28:18;;;;;;;20.03;15.47;;;4.30;99.90;;;;;;5014566;28;20224;-50
2020/12/05 07:30:45;;;;;;;17.67;14.87;;;4.30;99.90;;;;;;5014627;28;20331;-53
2020/12/05 07:33:14;;;;;;;18.97;15.20;;;4.30;99.90;;;;;;5014588;28;20304;-49
2020/12/05 07:35:42;;;;;;;17.13;15.33;;;4.30;99.90;;;;;;5014459;28;20213;-52
2020/12/05 07:38:15;;;;;;;20.23;16.90;;;4.30;99.90;;;;;;5014689;28;20320;-49
2020/12/05 07:40:43;;;;;;;22.17;18.53;;;4.30;99.90;;;;;;5015247;28;20686;-53
2020/12/05 07:43:18;;;;;;;23.20;19.27;;;4.30;99.90;;;;;;5014262;28;20768;-55
2020/12/05 07:45:47;;;;;;;19.60;17.40;;;4.40;99.90;;;;;;5014166;28;20750;-50
2020/12/05 07:48:16;;;;;;;21.87;19.50;;;4.40;99.90;;;;;;5014493;28;20264;-52
2020/12/05 07:50:45;;;;;;;26.00;19.57;;;4.40;99.90;;;;;;5014160;28;20267;-53
2020/12/05 07:53:39;;;;;;;22.10;18.57;;;4.50;99.90;;;;;;5014229;28;20522;-48
2020/12/05 07:56:16;;;;;;;18.57;16.57;;;4.60;99.90;;;;;;4967894;28;20259;-52
2020/12/05 07:58:45;;;;;;;23.17;17.60;;;4.70;99.90;;;;;;5014069;28;20229;-48
2020/12/05 08:01:24;;;;;;;20.75;17.70;;;4.70;99.90;;;;;;5013948;28;20292;-45
2020/12/05 08:04:12;;;;;;;21.00;17.03;;;4.70;99.90;;;;;;5013800;28;20300;-48
2020/12/05 08:06:54;;;;;;;18.27;16.27;;;4.70;99.90;;;;;;5013823;28;20308;-49
2020/12/05 08:09:27;;;;;;;26.37;20.70;;;4.70;99.90;;;;;;5013864;28;20300;-51
2020/12/05 08:11:56;;;;;;;27.97;22.17;;;4.70;99.90;;;;;;5013771;28;20280;-53
2020/12/05 08:14:23;;;;;;;23.38;20.00;;;4.70;99.90;;;;;;5013367;28;20255;-51
2020/12/05 08:16:55;;;;;;;22.80;19.13;;;4.70;99.90;;;;;;5013618;28;20288;-52
2020/12/05 08:19:23;;;;;;;22.20;18.67;;;4.70;99.90;;;;;;5013381;28;20229;-52
2020/12/05 08:21:52;;;;;;;21.60;18.57;;;4.70;99.90;;;;;;5013460;28;20209;-53
2020/12/05 08:24:20;;;;;;;24.63;20.27;;;4.60;99.90;;;;;;5013345;28;20668;-52
2020/12/05 08:26:50;;;;;;;26.03;21.47;;;4.70;99.90;;;;;;5013451;28;20260;-49
2020/12/05 08:29:18;;;;;;;23.37;20.00;;;4.70;99.90;;;;;;5013518;28;20212;-51
2020/12/05 08:31:45;;;;;;;27.10;22.43;;;4.80;99.90;;;;;;5013346;28;20304;-53
2020/12/05 08:34:12;;;;;;;28.60;22.93;;;4.80;99.90;;;;;;5013536;28;20305;-49
2020/12/05 08:36:44;;;;;;;28.27;21.70;;;4.80;99.90;;;;;;5012804;28;20214;-48
2020/12/05 08:39:14;;;;;;;24.60;20.20;;;4.90;99.90;;;;;;5012990;28;20691;-52
2020/12/05 08:41:43;;;;;;;23.20;20.17;;;4.90;99.90;;;;;;5012969;28;20304;-55
2020/12/05 08:44:12;;;;;;;24.63;20.43;;;5.00;99.90;;;;;;5013254;28;20557;-49
2020/12/05 08:46:39;;;;;;;24.40;20.40;;;5.00;99.90;;;;;;5012743;28;20348;-51
2020/12/05 08:49:17;;;;;;;21.77;19.43;;;5.00;99.90;;;;;;5012833;28;20267;-48
2020/12/05 08:51:48;;;;;;;23.53;20.40;;;5.00;99.90;;;;;;5013194;28;20249;-57
2020/12/05 08:54:16;;;;;;;22.43;19.30;;;5.00;99.90;;;;;;5012990;28;20220;-54
2020/12/05 08:56:44;;;;;;;27.77;24.13;;;5.00;99.90;;;;;;5013135;28;20220;-52
2020/12/05 08:59:12;;;;;;;25.87;22.03;;;5.10;99.90;;;;;;5012930;28;20279;-54
2020/12/05 09:01:40;;;;;;;27.73;21.30;;;5.10;99.90;;;;;;5017860;28;20213;-52
2020/12/05 09:04:07;;;;;;;21.47;19.07;;;5.10;99.90;;;;;;5012656;28;20627;-54
2020/12/05 09:06:34;;;;;;;20.60;18.50;;;5.20;99.90;;;;;;5012411;28;20209;-50
2020/12/05 09:09:01;;;;;;;21.93;19.13;;;5.20;99.90;;;;;;5012689;28;20205;-51
2020/12/05 09:11:29;;;;;;;19.27;16.92;;;5.20;99.90;;;;;;5012696;28;20686;-49
2020/12/05 09:13:57;;;;;;;20.25;17.70;;;5.20;99.90;;;;;;5012928;28;20217;-49
2020/12/05 09:16:32;;;;;;;22.37;18.53;;;5.10;99.90;;;;;;5012474;28;20832;-50
2020/12/05 09:19:00;;;;;;;18.57;16.57;;;5.20;99.90;;;;;;5012414;28;20363;-54
2020/12/05 09:21:34;;;;;;;20.33;17.80;;;5.20;99.90;;;;;;5012629;28;20304;-52
2020/12/05 09:24:03;;;;;;;18.47;16.27;;;5.30;99.90;;;;;;5012698;28;20208;-49
2020/12/05 09:26:32;;;;;;;18.97;16.47;;;5.30;99.90;;;;;;5012481;28;20303;-52
2020/12/05 09:29:01;;;;;;;17.37;15.50;;;5.30;99.90;;;;;;5012201;28;20217;-50
2020/12/05 09:31:28;;;;;;;22.07;19.47;;;5.40;99.90;;;;;;5012146;28;20644;-51
2020/12/05 09:33:55;;;;;;;22.98;20.38;;;5.50;99.90;;;;;;5012156;28;20300;-51
2020/12/05 09:36:22;;;;;;;25.23;20.02;;;5.40;99.90;;;;;;5012352;28;20205;-51
2020/12/05 09:38:49;;;;;;;23.30;20.13;;;5.40;99.90;;;;;;5012243;28;20234;-48
2020/12/05 09:41:16;;;;;;;21.08;18.85;;;5.30;99.90;;;;;;5012202;28;20237;-51
2020/12/05 09:43:44;;;;;;;22.33;19.10;;;5.40;99.90;;;;;;5012644;28;20296;-54
2020/12/05 09:46:11;;;;;;;21.73;19.43;;;5.40;99.90;;;;;;5011987;28;20251;-51
2020/12/05 09:48:38;;;;;;;23.43;20.50;;;5.50;99.90;;;;;;5016349;28;20248;-51
2020/12/05 09:51:05;;;;;;;22.57;19.87;;;5.60;99.90;;;;;;5012104;28;20568;-54
2020/12/05 09:53:32;;;;;;;22.10;19.87;;;5.60;99.90;;;;;;5012042;28;20299;-49
2020/12/05 09:55:59;;;;;;;20.77;18.60;;;5.60;99.90;;;;;;5012195;28;20213;-51
2020/12/05 09:58:27;;;;;;;25.97;20.93;;;5.70;99.90;;;;;;5011927;28;20681;-55
2020/12/05 10:00:54;;;;;;;23.83;21.33;;;5.70;99.90;;;;;;5013257;28;20239;-54
2020/12/05 10:03:21;;;;;;;34.00;27.33;;;5.80;99.90;;;;;;5012337;28;20291;-56
2020/12/05 10:05:49;;;;;;;23.43;20.97;;;5.80;99.90;;;;;;5012215;28;20244;-55
2020/12/05 10:08:16;;;;;;;30.67;27.88;;;5.70;99.90;;;;;;5012427;28;20201;-55
2020/12/05 10:10:43;;;;;;;20.77;18.60;;;5.50;99.90;;;;;;5012058;28;20758;-54
2020/12/05 10:13:10;;;;;;;20.17;18.07;;;5.50;99.90;;;;;;5011829;28;20604;-56
2020/12/05 10:15:37;;;;;;;22.00;18.70;;;5.40;99.90;;;;;;5014572;28;20267;-54
2020/12/05 10:18:04;;;;;;;21.70;18.23;;;5.30;99.90;;;;;;5012166;28;20229;-56
2020/12/05 10:20:32;;;;;;;22.00;19.70;;;5.30;99.90;;;;;;5012625;28;20217;-57
2020/12/05 10:23:02;;;;;;;21.40;19.15;;;5.30;99.90;;;;;;5013257;28;20676;-53
2020/12/05 10:25:29;;;;;;;21.90;19.60;;;5.30;99.90;;;;;;5014850;28;20209;-59
2020/12/05 10:27:56;;;;;;;41.75;36.95;;;5.40;99.90;;;;;;5012535;28;20292;-57
2020/12/05 10:30:23;;;;;;;24.30;21.67;;;5.40;99.90;;;;;;5012148;28;20654;-58
2020/12/05 10:32:51;;;;;;;20.00;17.90;;;5.50;99.90;;;;;;5012203;28;20633;-58
2020/12/05 10:35:19;;;;;;;19.67;17.40;;;5.50;99.90;;;;;;5011801;28;20213;-56
2020/12/05 10:37:46;;;;;;;21.63;18.00;;;5.50;99.90;;;;;;5011626;28;20213;-57
2020/12/05 10:40:13;;;;;;;19.27;16.75;;;5.50;99.90;;;;;;5011793;28;20232;-60
2020/12/05 10:42:40;;;;;;;19.47;17.57;;;5.50;99.90;;;;;;5011765;28;20300;-58
2020/12/05 10:45:07;;;;;;;22.48;17.45;;;5.50;99.90;;;;;;5011710;28;20245;-55
2020/12/05 10:47:34;;;;;;;23.30;19.13;;;5.50;99.90;;;;;;5011407;28;20690;-54
2020/12/05 10:50:01;;;;;;;19.70;17.70;;;5.60;99.90;;;;;;5011265;28;20256;-56
2020/12/05 10:52:29;;;;;;;20.25;17.40;;;5.70;99.90;;;;;;5011773;28;20625;-53
2020/12/05 10:54:56;;;;;;;19.93;17.03;;;5.60;99.90;;;;;;5011368;28;20675;-57
2020/12/05 10:57:23;;;;;;;18.00;15.95;;;5.70;99.90;;;;;;5011593;28;20244;-59
2020/12/05 10:59:52;;;;;;;18.67;16.10;;;5.60;99.90;;;;;;5013191;28;20299;-55
2020/12/05 11:02:19;;;;;;;17.15;15.35;;;5.60;99.90;;;;;;5014711;28;20209;-54
2020/12/05 11:04:46;;;;;;;20.65;18.58;;;5.60;99.90;;;;;;5015147;28;20245;-54
2020/12/05 11:07:13;;;;;;;19.30;17.40;;;5.70;99.90;;;;;;5014942;28;20227;-54
2020/12/05 11:09:41;;;;;;;21.27;17.23;;;5.50;99.90;;;;;;5015170;28;20321;-59
2020/12/05 11:12:09;;;;;;;18.73;16.83;;;5.50;99.90;;;;;;5014800;28;20280;-58
2020/12/05 11:14:36;;;;;;;21.80;17.73;;;5.50;99.90;;;;;;5015252;28;20508;-55
2020/12/05 11:17:03;;;;;;;20.03;18.03;;;5.50;99.90;;;;;;5015793;28;20350;-58
2020/12/05 11:19:30;;;;;;;19.60;17.53;;;5.50;99.90;;;;;;5015579;28;20237;-54
2020/12/05 11:21:58;;;;;;;21.20;18.53;;;5.50;99.90;;;;;;5015126;28;20205;-57
2020/12/05 11:24:24;;;;;;;21.37;19.07;;;5.50;99.90;;;;;;5015374;28;20206;-58
2020/12/05 11:26:54;;;;;;;18.90;16.77;;;5.50;99.90;;;;;;5016069;28;20239;-59
2020/12/05 11:29:21;;;;;;;18.03;15.83;;;5.50;99.90;;;;;;5018803;28;20731;-57
2020/12/05 11:31:48;;;;;;;44.00;38.77;;;5.50;99.90;;;;;;5017267;28;20220;-56
2020/12/05 11:34:15;;;;;;;19.45;17.27;;;5.40;99.90;;;;;;5017169;28;20299;-54
2020/12/05 11:36:43;;;;;;;19.83;17.83;;;5.30;99.90;;;;;;5016832;28;20276;-59
2020/12/05 11:39:11;;;;;;;19.40;16.65;;;5.30;99.90;;;;;;5016447;28;20233;-58
2020/12/05 11:41:38;;;;;;;20.10;18.00;;;5.40;99.90;;;;;;5017247;28;20209;-60
2020/12/05 11:44:06;;;;;;;20.10;17.98;;;5.40;99.90;;;;;;5014690;28;20553;-59
2020/12/05 11:46:33;;;;;;;20.53;18.30;;;5.30;99.90;;;;;;5014661;28;20241;-60
2020/12/05 11:49:01;;;;;;;18.17;16.25;;;5.30;99.90;;;;;;5015488;28;20632;-60
2020/12/05 11:51:29;;;;;;;19.87;17.73;;;5.30;99.90;;;;;;5015085;28;20213;-59
2020/12/05 11:53:56;;;;;;;18.43;16.50;;;5.30;99.90;;;;;;5014702;28;20213;-59
2020/12/05 11:56:24;;;;;;;18.57;15.83;;;5.30;99.90;;;;;;5015275;28;20272;-60
2020/12/05 11:58:51;;;;;;;23.97;21.40;;;5.30;99.90;;;;;;5014361;28;20319;-59
2020/12/05 12:01:19;;;;;;;19.58;17.50;;;5.30;99.90;;;;;;5014957;28;20268;-60
2020/12/05 12:03:47;;;;;;;26.00;23.42;;;5.30;99.90;;;;;;5015914;28;20668;-62
2020/12/05 12:06:14;;;;;;;18.17;16.33;;;5.40;99.90;;;;;;5016499;28;20312;-61
2020/12/05 12:08:42;;;;;;;19.53;17.53;;;5.40;99.90;;;;;;5015986;28;20601;-60
2020/12/05 12:11:13;;;;;;;17.08;15.35;;;5.60;99.90;;;;;;5014972;28;20300;-59
2020/12/05 12:13:41;;;;;;;18.27;16.40;;;5.60;99.90;;;;;;5015072;28;20716;-63
2020/12/05 12:16:08;;;;;;;17.10;15.40;;;5.60;99.90;;;;;;5014548;28;20245;-59
2020/12/05 12:18:35;;;;;;;17.90;15.77;;;5.60;99.90;;;;;;5014309;28;20282;-63
2020/12/05 12:21:02;;;;;;;20.37;17.23;;;5.50;99.90;;;;;;5013697;28;20751;-62
2020/12/05 12:23:29;;;;;;;18.03;16.20;;;5.50;99.90;;;;;;5013353;28;20313;-62
2020/12/05 12:25:56;;;;;;;17.67;15.77;;;5.50;99.90;;;;;;5013835;28;20300;-63
2020/12/05 12:28:23;;;;;;;18.70;16.40;;;5.50;99.90;;;;;;5013347;28;20211;-64
2020/12/05 12:30:51;;;;;;;18.27;15.87;;;5.60;99.90;;;;;;5013485;28;20256;-65
2020/12/05 12:33:18;;;;;;;21.97;18.77;;;5.70;99.90;;;;;;5013472;28;20300;-59
2020/12/05 12:35:46;;;;;;;20.07;17.90;;;5.60;99.90;;;;;;5013469;28;20209;-63
2020/12/05 12:38:14;;;;;;;20.77;18.60;;;5.60;99.90;;;;;;5013356;28;20209;-55
2020/12/05 12:40:41;;;;;;;30.63;27.43;;;5.50;99.90;;;;;;5012992;28;20709;-58
2020/12/05 12:43:08;;;;;;;21.17;18.60;;;5.50;99.90;;;;;;5013341;28;20259;-57